sensor_id;sensor_type;location;lat;lon;timestamp;P1;durP1;ratioP1;P2;durP2;ratioP2
51602;SDS011;37954;51.980;5.850;2022-12-29T00:02:50;1.98;;;1.83;;
51602;SDS011;37954;51.980;5.850;2022-12-29T00:07:02;4.47;;;2.40;;
51602;SDS011;37954;51.980;5.850;2022-12-29T00:11:16;2.72;;;2.17;;
51602;SDS011;37954;51.980;5.850;2022-12-29T00:15:29;2.30;;;2.10;;
51602;SDS011;37954;51.980;5.850;2022-12-29T00:19:50;2.30;;;2.10;;
51602;SDS011;37954;51.980;5.850;2022-12-29T00:24:21;6.13;;;2.10;;
51602;SDS011;37954;51.980;5.850;2022-12-29T00:28:33;2.33;;;2.05;;
51602;SDS011;37954;51.980;5.850;2022-12-29T00:37:43;1.95;;;1.83;;
51602;SDS011;37954;51.980;5.850;2022-12-29T00:42:17;1.85;;;1.75;;
51602;SDS011;37954;51.980;5.850;2022-12-29T00:46:47;3.65;;;1.95;;
51602;SDS011;37954;51.980;5.850;2022-12-29T00:50:59;2.75;;;2.20;;
51602;SDS011;37954;51.980;5.850;2022-12-29T00:55:11;1.92;;;1.80;;
51602;SDS011;37954;51.980;5.850;2022-12-29T00:59:23;2.13;;;1.80;;
51602;SDS011;37954;51.980;5.850;2022-12-29T01:03:36;2.60;;;1.85;;
51602;SDS011;37954;51.980;5.850;2022-12-29T01:07:48;1.90;;;1.80;;
51602;SDS011;37954;51.980;5.850;2022-12-29T01:12:01;2.22;;;1.77;;
51602;SDS011;37954;51.980;5.850;2022-12-29T01:16:13;1.45;;;1.35;;
51602;SDS011;37954;51.980;5.850;2022-12-29T01:20:25;0.90;;;0.90;;
51602;SDS011;37954;51.980;5.850;2022-12-29T01:24:38;1.55;;;1.30;;
51602;SDS011;37954;51.980;5.850;2022-12-29T01:28:50;1.60;;;1.40;;
51602;SDS011;37954;51.980;5.850;2022-12-29T01:33:02;1.20;;;1.10;;
51602;SDS011;37954;51.980;5.850;2022-12-29T01:37:14;1.13;;;1.02;;
51602;SDS011;37954;51.980;5.850;2022-12-29T01:41:26;1.98;;;1.10;;
51602;SDS011;37954;51.980;5.850;2022-12-29T01:45:37;1.05;;;0.95;;
51602;SDS011;37954;51.980;5.850;2022-12-29T01:49:50;1.50;;;1.02;;
51602;SDS011;37954;51.980;5.850;2022-12-29T01:54:07;0.80;;;0.80;;
51602;SDS011;37954;51.980;5.850;2022-12-29T01:58:24;1.02;;;1.00;;
51602;SDS011;37954;51.980;5.850;2022-12-29T02:03:14;1.30;;;1.20;;
51602;SDS011;37954;51.980;5.850;2022-12-29T02:07:20;1.35;;;1.20;;
51602;SDS011;37954;51.980;5.850;2022-12-29T02:11:35;1.20;;;1.17;;
51602;SDS011;37954;51.980;5.850;2022-12-29T02:42:27;3.65;;;1.27;;
51602;SDS011;37954;51.980;5.850;2022-12-29T02:47:16;3.60;;;1.10;;
51602;SDS011;37954;51.980;5.850;2022-12-29T02:52:00;2.15;;;1.33;;
51602;SDS011;37954;51.980;5.850;2022-12-29T02:56:15;2.40;;;2.20;;
51602;SDS011;37954;51.980;5.850;2022-12-29T03:00:29;2.28;;;1.15;;
51602;SDS011;37954;51.980;5.850;2022-12-29T03:09:39;1.83;;;1.05;;
51602;SDS011;37954;51.980;5.850;2022-12-29T03:14:21;1.13;;;1.00;;
51602;SDS011;37954;51.980;5.850;2022-12-29T03:23:33;3.25;;;1.50;;
51602;SDS011;37954;51.980;5.850;2022-12-29T03:27:49;1.52;;;1.10;;
51602;SDS011;37954;51.980;5.850;2022-12-29T03:32:05;3.53;;;0.77;;
51602;SDS011;37954;51.980;5.850;2022-12-29T03:36:24;3.90;;;1.30;;
51602;SDS011;37954;51.980;5.850;2022-12-29T03:40:42;4.35;;;1.05;;
51602;SDS011;37954;51.980;5.850;2022-12-29T03:44:58;2.25;;;1.10;;
51602;SDS011;37954;51.980;5.850;2022-12-29T03:49:09;3.40;;;1.20;;
51602;SDS011;37954;51.980;5.850;2022-12-29T03:53:23;1.30;;;0.80;;
51602;SDS011;37954;51.980;5.850;2022-12-29T03:57:34;0.95;;;0.65;;
51602;SDS011;37954;51.980;5.850;2022-12-29T04:01:50;2.28;;;0.95;;
51602;SDS011;37954;51.980;5.850;2022-12-29T04:06:02;2.50;;;1.20;;
51602;SDS011;37954;51.980;5.850;2022-12-29T04:10:22;2.67;;;1.20;;
51602;SDS011;37954;51.980;5.850;2022-12-29T04:14:37;0.82;;;0.80;;
51602;SDS011;37954;51.980;5.850;2022-12-29T04:18:49;1.40;;;0.85;;
51602;SDS011;37954;51.980;5.850;2022-12-29T04:23:02;1.95;;;0.98;;
51602;SDS011;37954;51.980;5.850;2022-12-29T04:27:15;1.25;;;0.85;;
51602;SDS011;37954;51.980;5.850;2022-12-29T04:31:47;3.70;;;1.10;;
51602;SDS011;37954;51.980;5.850;2022-12-29T04:35:59;3.10;;;1.00;;
51602;SDS011;37954;51.980;5.850;2022-12-29T04:40:11;2.20;;;0.93;;
51602;SDS011;37954;51.980;5.850;2022-12-29T04:44:23;2.25;;;1.30;;
51602;SDS011;37954;51.980;5.850;2022-12-29T04:48:35;1.50;;;0.98;;
51602;SDS011;37954;51.980;5.850;2022-12-29T04:52:58;3.20;;;1.30;;
51602;SDS011;37954;51.980;5.850;2022-12-29T04:57:10;1.10;;;1.00;;
51602;SDS011;37954;51.980;5.850;2022-12-29T05:01:23;2.05;;;0.82;;
51602;SDS011;37954;51.980;5.850;2022-12-29T05:05:34;1.23;;;0.82;;
51602;SDS011;37954;51.980;5.850;2022-12-29T05:09:46;1.85;;;1.10;;
51602;SDS011;37954;51.980;5.850;2022-12-29T05:13:58;2.60;;;1.50;;
51602;SDS011;37954;51.980;5.850;2022-12-29T05:18:09;2.08;;;1.20;;
51602;SDS011;37954;51.980;5.850;2022-12-29T05:22:21;2.55;;;0.80;;
51602;SDS011;37954;51.980;5.850;2022-12-29T05:26:33;2.78;;;1.02;;
51602;SDS011;37954;51.980;5.850;2022-12-29T05:31:07;2.90;;;1.15;;
51602;SDS011;37954;51.980;5.850;2022-12-29T05:35:19;1.83;;;1.00;;
51602;SDS011;37954;51.980;5.850;2022-12-29T05:39:31;4.47;;;1.27;;
51602;SDS011;37954;51.980;5.850;2022-12-29T05:43:45;1.53;;;0.90;;
51602;SDS011;37954;51.980;5.850;2022-12-29T05:48:17;2.03;;;1.07;;
51602;SDS011;37954;51.980;5.850;2022-12-29T05:53:07;3.13;;;1.20;;
51602;SDS011;37954;51.980;5.850;2022-12-29T05:57:20;1.87;;;1.00;;
51602;SDS011;37954;51.980;5.850;2022-12-29T06:01:41;1.80;;;1.37;;
51602;SDS011;37954;51.980;5.850;2022-12-29T06:05:53;2.33;;;1.30;;
51602;SDS011;37954;51.980;5.850;2022-12-29T06:10:05;2.30;;;1.20;;
51602;SDS011;37954;51.980;5.850;2022-12-29T06:14:25;3.57;;;1.67;;
51602;SDS011;37954;51.980;5.850;2022-12-29T06:18:37;2.43;;;1.40;;
51602;SDS011;37954;51.980;5.850;2022-12-29T06:22:49;2.60;;;1.20;;
51602;SDS011;37954;51.980;5.850;2022-12-29T06:27:01;2.13;;;1.10;;
51602;SDS011;37954;51.980;5.850;2022-12-29T06:31:13;2.90;;;1.27;;
51602;SDS011;37954;51.980;5.850;2022-12-29T06:35:25;5.68;;;1.58;;
51602;SDS011;37954;51.980;5.850;2022-12-29T06:39:37;7.80;;;1.00;;
51602;SDS011;37954;51.980;5.850;2022-12-29T06:43:53;4.77;;;1.50;;
51602;SDS011;37954;51.980;5.850;2022-12-29T06:48:19;4.20;;;1.43;;
51602;SDS011;37954;51.980;5.850;2022-12-29T06:52:31;3.23;;;1.50;;
51602;SDS011;37954;51.980;5.850;2022-12-29T06:56:42;2.60;;;1.40;;
51602;SDS011;37954;51.980;5.850;2022-12-29T07:00:54;6.57;;;1.23;;
51602;SDS011;37954;51.980;5.850;2022-12-29T07:05:06;3.37;;;1.30;;
51602;SDS011;37954;51.980;5.850;2022-12-29T07:09:19;1.67;;;1.20;;
51602;SDS011;37954;51.980;5.850;2022-12-29T07:13:30;1.90;;;1.17;;
51602;SDS011;37954;51.980;5.850;2022-12-29T07:17:42;0.97;;;0.80;;
51602;SDS011;37954;51.980;5.850;2022-12-29T07:21:54;3.30;;;1.00;;
51602;SDS011;37954;51.980;5.850;2022-12-29T07:26:07;4.40;;;1.10;;
51602;SDS011;37954;51.980;5.850;2022-12-29T07:30:22;4.23;;;1.47;;
51602;SDS011;37954;51.980;5.850;2022-12-29T07:34:34;2.83;;;1.27;;
51602;SDS011;37954;51.980;5.850;2022-12-29T07:38:45;2.73;;;1.43;;
51602;SDS011;37954;51.980;5.850;2022-12-29T07:42:57;1.37;;;0.97;;
51602;SDS011;37954;51.980;5.850;2022-12-29T07:47:22;3.23;;;1.30;;
51602;SDS011;37954;51.980;5.850;2022-12-29T07:51:34;2.73;;;1.10;;
51602;SDS011;37954;51.980;5.850;2022-12-29T08:00:07;4.33;;;1.60;;
51602;SDS011;37954;51.980;5.850;2022-12-29T08:04:23;5.33;;;1.43;;
51602;SDS011;37954;51.980;5.850;2022-12-29T08:08:35;6.73;;;1.47;;
51602;SDS011;37954;51.980;5.850;2022-12-29T08:12:47;1.50;;;1.33;;
51602;SDS011;37954;51.980;5.850;2022-12-29T08:16:58;2.87;;;1.40;;
51602;SDS011;37954;51.980;5.850;2022-12-29T08:21:10;5.00;;;1.47;;
51602;SDS011;37954;51.980;5.850;2022-12-29T08:25:22;3.10;;;1.30;;
51602;SDS011;37954;51.980;5.850;2022-12-29T08:29:34;2.97;;;1.47;;
51602;SDS011;37954;51.980;5.850;2022-12-29T08:33:46;7.30;;;1.60;;
51602;SDS011;37954;51.980;5.850;2022-12-29T08:37:57;2.47;;;1.40;;
51602;SDS011;37954;51.980;5.850;2022-12-29T08:42:09;1.73;;;1.20;;
51602;SDS011;37954;51.980;5.850;2022-12-29T08:46:20;7.17;;;1.40;;
51602;SDS011;37954;51.980;5.850;2022-12-29T08:50:32;4.40;;;1.63;;
51602;SDS011;37954;51.980;5.850;2022-12-29T08:54:44;1.93;;;1.17;;
51602;SDS011;37954;51.980;5.850;2022-12-29T08:58:56;3.10;;;1.52;;
51602;SDS011;37954;51.980;5.850;2022-12-29T09:03:08;2.20;;;1.50;;
51602;SDS011;37954;51.980;5.850;2022-12-29T09:07:20;2.25;;;1.27;;
51602;SDS011;37954;51.980;5.850;2022-12-29T09:11:32;6.67;;;1.97;;
51602;SDS011;37954;51.980;5.850;2022-12-29T09:15:44;3.85;;;1.50;;
51602;SDS011;37954;51.980;5.850;2022-12-29T09:19:56;2.70;;;1.40;;
51602;SDS011;37954;51.980;5.850;2022-12-29T09:24:08;2.95;;;1.35;;
51602;SDS011;37954;51.980;5.850;2022-12-29T09:28:20;3.65;;;1.27;;
51602;SDS011;37954;51.980;5.850;2022-12-29T09:32:32;7.15;;;2.10;;
51602;SDS011;37954;51.980;5.850;2022-12-29T09:36:48;3.95;;;1.83;;
51602;SDS011;37954;51.980;5.850;2022-12-29T09:45:45;2.25;;;1.40;;
51602;SDS011;37954;51.980;5.850;2022-12-29T09:50:06;5.47;;;1.65;;
51602;SDS011;37954;51.980;5.850;2022-12-29T09:58:52;8.10;;;1.83;;
51602;SDS011;37954;51.980;5.850;2022-12-29T10:03:13;5.72;;;1.45;;
51602;SDS011;37954;51.980;5.850;2022-12-29T10:16:44;3.63;;;1.33;;
51602;SDS011;37954;51.980;5.850;2022-12-29T10:21:21;4.43;;;1.60;;
51602;SDS011;37954;51.980;5.850;2022-12-29T10:25:44;3.97;;;1.60;;
51602;SDS011;37954;51.980;5.850;2022-12-29T10:29:56;2.23;;;1.50;;
51602;SDS011;37954;51.980;5.850;2022-12-29T10:34:15;1.77;;;1.30;;
51602;SDS011;37954;51.980;5.850;2022-12-29T10:38:49;3.57;;;1.47;;
51602;SDS011;37954;51.980;5.850;2022-12-29T10:43:17;2.47;;;1.30;;
51602;SDS011;37954;51.980;5.850;2022-12-29T10:47:38;3.78;;;1.60;;
51602;SDS011;37954;51.980;5.850;2022-12-29T10:52:00;2.63;;;1.85;;
51602;SDS011;37954;51.980;5.850;2022-12-29T10:56:34;5.13;;;1.80;;
51602;SDS011;37954;51.980;5.850;2022-12-29T11:00:50;3.90;;;1.50;;
51602;SDS011;37954;51.980;5.850;2022-12-29T11:05:15;5.67;;;1.80;;
51602;SDS011;37954;51.980;5.850;2022-12-29T11:09:41;3.60;;;1.58;;
51602;SDS011;37954;51.980;5.850;2022-12-29T11:13:59;4.40;;;2.00;;
51602;SDS011;37954;51.980;5.850;2022-12-29T11:22:35;5.32;;;2.20;;
51602;SDS011;37954;51.980;5.850;2022-12-29T11:26:52;5.80;;;2.78;;
51602;SDS011;37954;51.980;5.850;2022-12-29T11:31:08;3.70;;;2.03;;
51602;SDS011;37954;51.980;5.850;2022-12-29T11:44:10;4.20;;;2.55;;
51602;SDS011;37954;51.980;5.850;2022-12-29T11:48:31;8.60;;;3.10;;
51602;SDS011;37954;51.980;5.850;2022-12-29T11:52:49;3.95;;;2.22;;
51602;SDS011;37954;51.980;5.850;2022-12-29T11:57:13;10.20;;;3.05;;
51602;SDS011;37954;51.980;5.850;2022-12-29T12:01:31;4.53;;;2.30;;
51602;SDS011;37954;51.980;5.850;2022-12-29T12:05:55;5.68;;;2.33;;
51602;SDS011;37954;51.980;5.850;2022-12-29T12:10:15;5.78;;;2.28;;
51602;SDS011;37954;51.980;5.850;2022-12-29T12:28:59;8.82;;;2.80;;
51602;SDS011;37954;51.980;5.850;2022-12-29T12:33:22;9.05;;;3.80;;
51602;SDS011;37954;51.980;5.850;2022-12-29T12:37:43;6.05;;;2.72;;
51602;SDS011;37954;51.980;5.850;2022-12-29T13:00:09;5.85;;;2.53;;
51602;SDS011;37954;51.980;5.850;2022-12-29T13:09:12;7.93;;;2.38;;
51602;SDS011;37954;51.980;5.850;2022-12-29T13:26:32;3.95;;;2.40;;
51602;SDS011;37954;51.980;5.850;2022-12-29T13:43:49;3.50;;;2.33;;
51602;SDS011;37954;51.980;5.850;2022-12-29T13:52:43;3.80;;;2.25;;
51602;SDS011;37954;51.980;5.850;2022-12-29T14:01:38;6.53;;;3.25;;
51602;SDS011;37954;51.980;5.850;2022-12-29T14:06:14;5.05;;;1.80;;
51602;SDS011;37954;51.980;5.850;2022-12-29T14:19:28;3.92;;;2.30;;
51602;SDS011;37954;51.980;5.850;2022-12-29T14:23:43;3.03;;;1.70;;
51602;SDS011;37954;51.980;5.850;2022-12-29T14:27:56;1.58;;;1.08;;
51602;SDS011;37954;51.980;5.850;2022-12-29T14:36:39;1.48;;;1.38;;
51602;SDS011;37954;51.980;5.850;2022-12-29T14:46:08;3.72;;;2.20;;
51602;SDS011;37954;51.980;5.850;2022-12-29T14:58:50;4.07;;;1.80;;
51602;SDS011;37954;51.980;5.850;2022-12-29T15:03:05;4.47;;;1.90;;
51602;SDS011;37954;51.980;5.850;2022-12-29T15:07:23;2.50;;;1.98;;
51602;SDS011;37954;51.980;5.850;2022-12-29T15:15:49;2.95;;;1.92;;
51602;SDS011;37954;51.980;5.850;2022-12-29T15:20:13;1.93;;;1.30;;
51602;SDS011;37954;51.980;5.850;2022-12-29T15:24:40;3.87;;;1.83;;
51602;SDS011;37954;51.980;5.850;2022-12-29T15:33:17;7.33;;;2.20;;
51602;SDS011;37954;51.980;5.850;2022-12-29T15:37:33;5.80;;;3.93;;
51602;SDS011;37954;51.980;5.850;2022-12-29T15:41:53;6.75;;;2.40;;
51602;SDS011;37954;51.980;5.850;2022-12-29T15:46:34;6.28;;;1.88;;
51602;SDS011;37954;51.980;5.850;2022-12-29T15:50:46;2.72;;;1.95;;
51602;SDS011;37954;51.980;5.850;2022-12-29T15:54:59;4.43;;;2.03;;
51602;SDS011;37954;51.980;5.850;2022-12-29T15:59:32;3.50;;;1.80;;
51602;SDS011;37954;51.980;5.850;2022-12-29T16:03:45;6.17;;;2.43;;
51602;SDS011;37954;51.980;5.850;2022-12-29T16:07:58;3.10;;;1.80;;
51602;SDS011;37954;51.980;5.850;2022-12-29T16:12:17;4.13;;;2.50;;
51602;SDS011;37954;51.980;5.850;2022-12-29T16:16:34;2.92;;;1.90;;
51602;SDS011;37954;51.980;5.850;2022-12-29T16:20:49;2.95;;;1.80;;
51602;SDS011;37954;51.980;5.850;2022-12-29T16:25:01;7.43;;;2.72;;
51602;SDS011;37954;51.980;5.850;2022-12-29T16:29:34;2.57;;;1.80;;
51602;SDS011;37954;51.980;5.850;2022-12-29T16:33:47;2.70;;;1.70;;
51602;SDS011;37954;51.980;5.850;2022-12-29T16:42:34;7.47;;;3.50;;
51602;SDS011;37954;51.980;5.850;2022-12-29T16:51:31;4.10;;;2.67;;
51602;SDS011;37954;51.980;5.850;2022-12-29T16:55:46;4.50;;;3.25;;
51602;SDS011;37954;51.980;5.850;2022-12-29T16:59:59;8.27;;;2.63;;
51602;SDS011;37954;51.980;5.850;2022-12-29T17:04:14;2.30;;;1.80;;
51602;SDS011;37954;51.980;5.850;2022-12-29T17:08:26;3.23;;;2.17;;
51602;SDS011;37954;51.980;5.850;2022-12-29T17:12:38;5.30;;;1.73;;
51602;SDS011;37954;51.980;5.850;2022-12-29T17:16:50;1.83;;;1.40;;
51602;SDS011;37954;51.980;5.850;2022-12-29T17:21:01;3.00;;;1.50;;
51602;SDS011;37954;51.980;5.850;2022-12-29T17:25:14;7.23;;;2.20;;
51602;SDS011;37954;51.980;5.850;2022-12-29T17:29:30;4.23;;;2.30;;
51602;SDS011;37954;51.980;5.850;2022-12-29T17:33:48;4.20;;;2.17;;
51602;SDS011;37954;51.980;5.850;2022-12-29T17:38:00;3.63;;;2.53;;
51602;SDS011;37954;51.980;5.850;2022-12-29T17:42:11;3.57;;;2.03;;
51602;SDS011;37954;51.980;5.850;2022-12-29T17:46:23;4.13;;;1.80;;
51602;SDS011;37954;51.980;5.850;2022-12-29T17:50:35;5.60;;;2.03;;
51602;SDS011;37954;51.980;5.850;2022-12-29T17:54:48;10.57;;;2.90;;
51602;SDS011;37954;51.980;5.850;2022-12-29T17:59:02;3.70;;;2.00;;
51602;SDS011;37954;51.980;5.850;2022-12-29T18:03:18;6.13;;;1.70;;
51602;SDS011;37954;51.980;5.850;2022-12-29T18:07:33;3.05;;;1.85;;
51602;SDS011;37954;51.980;5.850;2022-12-29T18:11:46;5.30;;;1.73;;
51602;SDS011;37954;51.980;5.850;2022-12-29T18:15:58;3.40;;;1.87;;
51602;SDS011;37954;51.980;5.850;2022-12-29T18:20:10;2.20;;;1.60;;
51602;SDS011;37954;51.980;5.850;2022-12-29T18:24:22;6.87;;;1.70;;
51602;SDS011;37954;51.980;5.850;2022-12-29T18:28:34;3.63;;;1.60;;
51602;SDS011;37954;51.980;5.850;2022-12-29T18:32:45;3.00;;;1.60;;
51602;SDS011;37954;51.980;5.850;2022-12-29T18:36:57;2.97;;;1.53;;
51602;SDS011;37954;51.980;5.850;2022-12-29T18:41:21;4.70;;;1.87;;
51602;SDS011;37954;51.980;5.850;2022-12-29T18:45:34;9.50;;;2.60;;
51602;SDS011;37954;51.980;5.850;2022-12-29T18:49:46;3.93;;;1.80;;
51602;SDS011;37954;51.980;5.850;2022-12-29T18:53:59;3.43;;;1.87;;
51602;SDS011;37954;51.980;5.850;2022-12-29T18:58:13;2.60;;;1.50;;
51602;SDS011;37954;51.980;5.850;2022-12-29T19:02:25;9.60;;;2.33;;
51602;SDS011;37954;51.980;5.850;2022-12-29T19:06:38;6.20;;;2.33;;
51602;SDS011;37954;51.980;5.850;2022-12-29T19:10:50;5.80;;;1.73;;
51602;SDS011;37954;51.980;5.850;2022-12-29T19:15:02;6.80;;;2.13;;
51602;SDS011;37954;51.980;5.850;2022-12-29T19:19:17;6.43;;;2.00;;
51602;SDS011;37954;51.980;5.850;2022-12-29T19:23:31;6.73;;;2.37;;
51602;SDS011;37954;51.980;5.850;2022-12-29T19:27:43;7.70;;;2.67;;
51602;SDS011;37954;51.980;5.850;2022-12-29T19:31:55;4.90;;;1.90;;
51602;SDS011;37954;51.980;5.850;2022-12-29T19:36:07;6.73;;;2.40;;
51602;SDS011;37954;51.980;5.850;2022-12-29T19:40:20;10.90;;;3.70;;
51602;SDS011;37954;51.980;5.850;2022-12-29T19:44:34;7.80;;;2.60;;
51602;SDS011;37954;51.980;5.850;2022-12-29T19:48:46;7.13;;;2.90;;
51602;SDS011;37954;51.980;5.850;2022-12-29T19:52:57;8.20;;;2.77;;
51602;SDS011;37954;51.980;5.850;2022-12-29T19:57:16;6.03;;;2.70;;
51602;SDS011;37954;51.980;5.850;2022-12-29T20:01:27;4.47;;;2.57;;
51602;SDS011;37954;51.980;5.850;2022-12-29T20:05:39;17.10;;;2.90;;
51602;SDS011;37954;51.980;5.850;2022-12-29T20:09:51;8.07;;;2.43;;
51602;SDS011;37954;51.980;5.850;2022-12-29T20:14:03;7.90;;;2.87;;
51602;SDS011;37954;51.980;5.850;2022-12-29T20:18:14;10.10;;;2.60;;
51602;SDS011;37954;51.980;5.850;2022-12-29T20:22:26;7.13;;;2.90;;
51602;SDS011;37954;51.980;5.850;2022-12-29T20:26:38;5.37;;;2.40;;
51602;SDS011;37954;51.980;5.850;2022-12-29T20:31:06;4.43;;;2.23;;
51602;SDS011;37954;51.980;5.850;2022-12-29T20:35:24;7.97;;;3.70;;
51602;SDS011;37954;51.980;5.850;2022-12-29T20:39:36;7.27;;;2.90;;
51602;SDS011;37954;51.980;5.850;2022-12-29T20:43:48;8.03;;;2.87;;
51602;SDS011;37954;51.980;5.850;2022-12-29T20:48:01;13.82;;;3.80;;
51602;SDS011;37954;51.980;5.850;2022-12-29T20:52:12;7.90;;;3.20;;
51602;SDS011;37954;51.980;5.850;2022-12-29T20:56:25;9.37;;;2.93;;
51602;SDS011;37954;51.980;5.850;2022-12-29T21:00:37;8.03;;;3.73;;
51602;SDS011;37954;51.980;5.850;2022-12-29T21:04:49;11.33;;;3.70;;
51602;SDS011;37954;51.980;5.850;2022-12-29T21:09:21;5.73;;;2.67;;
51602;SDS011;37954;51.980;5.850;2022-12-29T21:13:33;10.60;;;2.70;;
51602;SDS011;37954;51.980;5.850;2022-12-29T21:17:45;7.33;;;2.77;;
51602;SDS011;37954;51.980;5.850;2022-12-29T21:21:57;9.70;;;3.00;;
51602;SDS011;37954;51.980;5.850;2022-12-29T21:26:09;6.27;;;2.80;;
51602;SDS011;37954;51.980;5.850;2022-12-29T21:30:22;6.47;;;2.60;;
51602;SDS011;37954;51.980;5.850;2022-12-29T21:34:33;4.53;;;2.40;;
51602;SDS011;37954;51.980;5.850;2022-12-29T21:38:45;5.57;;;2.40;;
51602;SDS011;37954;51.980;5.850;2022-12-29T21:42:57;7.30;;;2.10;;
51602;SDS011;37954;51.980;5.850;2022-12-29T21:47:09;10.43;;;2.60;;
51602;SDS011;37954;51.980;5.850;2022-12-29T21:51:21;5.57;;;2.43;;
51602;SDS011;37954;51.980;5.850;2022-12-29T21:55:52;8.53;;;2.93;;
51602;SDS011;37954;51.980;5.850;2022-12-29T22:00:04;4.77;;;2.67;;
51602;SDS011;37954;51.980;5.850;2022-12-29T22:04:47;5.30;;;2.30;;
51602;SDS011;37954;51.980;5.850;2022-12-29T22:09:18;10.20;;;2.50;;
51602;SDS011;37954;51.980;5.850;2022-12-29T22:13:54;6.17;;;2.70;;
51602;SDS011;37954;51.980;5.850;2022-12-29T22:18:06;5.80;;;2.60;;
51602;SDS011;37954;51.980;5.850;2022-12-29T22:22:18;8.23;;;2.63;;
51602;SDS011;37954;51.980;5.850;2022-12-29T22:26:29;6.33;;;2.40;;
51602;SDS011;37954;51.980;5.850;2022-12-29T22:30:41;6.07;;;2.37;;
51602;SDS011;37954;51.980;5.850;2022-12-29T22:34:53;5.20;;;2.10;;
51602;SDS011;37954;51.980;5.850;2022-12-29T22:39:05;7.43;;;2.47;;
51602;SDS011;37954;51.980;5.850;2022-12-29T22:43:16;4.63;;;1.80;;
51602;SDS011;37954;51.980;5.850;2022-12-29T22:47:30;3.67;;;2.07;;
51602;SDS011;37954;51.980;5.850;2022-12-29T22:51:41;4.90;;;2.03;;
51602;SDS011;37954;51.980;5.850;2022-12-29T22:56:03;5.47;;;2.30;;
51602;SDS011;37954;51.980;5.850;2022-12-29T23:00:17;3.67;;;2.00;;
51602;SDS011;37954;51.980;5.850;2022-12-29T23:04:28;6.63;;;2.60;;
51602;SDS011;37954;51.980;5.850;2022-12-29T23:09:01;8.13;;;2.23;;
51602;SDS011;37954;51.980;5.850;2022-12-29T23:13:13;13.07;;;2.50;;
51602;SDS011;37954;51.980;5.850;2022-12-29T23:17:25;5.77;;;2.30;;
51602;SDS011;37954;51.980;5.850;2022-12-29T23:21:37;9.73;;;2.17;;
51602;SDS011;37954;51.980;5.850;2022-12-29T23:25:49;4.30;;;2.50;;
51602;SDS011;37954;51.980;5.850;2022-12-29T23:30:01;6.83;;;2.70;;
51602;SDS011;37954;51.980;5.850;2022-12-29T23:34:13;4.23;;;2.10;;
51602;SDS011;37954;51.980;5.850;2022-12-29T23:38:26;5.50;;;2.27;;
51602;SDS011;37954;51.980;5.850;2022-12-29T23:42:38;5.47;;;2.20;;
51602;SDS011;37954;51.980;5.850;2022-12-29T23:46:49;5.93;;;2.10;;
51602;SDS011;37954;51.980;5.850;2022-12-29T23:51:01;4.73;;;2.13;;
51602;SDS011;37954;51.980;5.850;2022-12-29T23:55:15;7.50;;;2.13;;
51602;SDS011;37954;51.980;5.850;2022-12-29T23:59:27;4.90;;;2.47;;
